Alameda, OR

6:11 PM PDT on October 20, 2014 (GMT -0700)
Portland-Troutdale | Change Station
CLOSE
Current Station
Airport
Location: Portland Troutdale,
Elevation: 36 ft
Nearby Weather Stations

Elev 36 ft 45.55 °N, 122.41 °W | Updated 18 minutes ago

Mostly Cloudy
Mostly Cloudy
63 °F
Feels Like 63 °F
N
7
Wind Variable Wind from SSW

Today
High -- | Low -- °F
--% Chance of Precip.
Yesterday
High -- | Low -- °F
Precip. -- in
7:33 AM 6:16 PM
Waning Crescent, 8% visible
Pressure 29.80 in
Visibility 10.0 miles
Clouds Few 4200 ft
Mostly Cloudy 7000 ft
Overcast 8000 ft
Dew Point 50 °F
Humidity 63%
Rainfall 0.14 in
Snow Depth Not available.
UV 0 out of 12
Pollen .40 out of 12
Ozone Good
PM2.5 Good
Flu Activity Sporadic
METAR KTTD 210053Z 21006KT 10SM FEW042 BKN070 OVC080 17/10 A2980 RMK AO2 SLP090 T01720100

More Conditions Fewer Conditions

Pressure 29.80 in
Visibility 10.0 miles
Clouds Few 4200 ft
Mostly Cloudy 7000 ft
Overcast 8000 ft
Dew Point 50 °F
Humidity 63%
Rainfall 0.14 in
Snow Depth Not available.
UV 0 out of 12
Pollen .40 out of 12
Ozone Good
PM2.5 Good
Flu Activity Sporadic
METAR KTTD 210053Z 21006KT 10SM FEW042 BKN070 OVC080 17/10 A2980 RMK AO2 SLP090 T01720100

More Conditions Fewer Conditions

Nowcast | as of 5:52 PM PDT on October 20, 2014

At 550 PM...a broken line of moderate to heavy showers that has produced a bit of lightning was moving through the Willamette Valley and along Interstate 5 in southwest Washington...and will move into the Cascade foothills in the next hour. Expect a brief period of reduced visibility from the rain and Road spray. Hydroplaning is also possible as water ponds on roadways.

×

10-Day Weather Forecast

Almanac

Astronomy

Oct. 20, 2014 Rise Set
Actual Time 7:33 AM PDT 6:16 PM PDT
Civil Twilight 7:03 AM PDT 6:46 PM PDT
Nautical Twilight 6:29 AM PDT 7:20 PM PDT
Astronomical Twilight 5:54 AM PDT 7:54 PM PDT
Moon 4:18 AM PDT (10/20) 4:49 PM PDT (10/20)
Length of Visible Light 11h 42m
Length of Day
10h 42m
Tomorrow will be 3m 1s shorter.
Waning Crescent, 8% of the Moon is Illuminated
Today
Waning Crescent
Oct 23
New
Oct 30
First Quarter
Nov 6
Full
Nov 14
Last Quarter

Today's Extremes

State Highs State Lows

Community

WunderPhotos

Upload Photos

1,763,578 photos uploaded!

Nearby

Air Quality

  Air Quality AQ Index Pollutant
Yesterday Good
PM2.5
Yesterday Good
OZONE
Current Good
OZONE
Current Good
PM2.5
Monday Good
PM2.5
Tuesday Good
PM2.5

Snow Depth

Station Depth Elevation
North Fork 0 in 3120 ft
Seine Creek 0 in 2000 ft
Greenpoint 0 in 3200 ft
Red Hill 0 in 4400 ft
Peavine Ridge 0 in 3500 ft

Earthquake Activity

City Distance Mag. Time & Date
No recent earthquake activity has been reported nearby.
Minimum magnitude displayed is 2.5.

Coastal Water Temperatures

Place Temperature
No Stations Reporting

Nearby Weather Stations